createdAt,value
2023-11-30T00:00:27.398Z,99.38
2023-11-30T00:02:54.022Z,99.11
2023-11-30T00:05:23.241Z,98.99
2023-11-30T00:07:50.212Z,99.63
2023-11-30T00:10:16.917Z,99.29
2023-11-30T00:12:43.560Z,99.48
2023-11-30T00:15:10.576Z,99.74
2023-11-30T00:17:37.202Z,99.99
2023-11-30T00:20:04.593Z,99.99
2023-11-30T00:22:31.173Z,99.99
2023-11-30T00:24:57.674Z,99.99
2023-11-30T00:27:24.507Z,99.35
2023-11-30T00:29:51.123Z,99.23
2023-11-30T00:32:17.710Z,98.98
2023-11-30T00:34:44.324Z,99.06
2023-11-30T00:37:10.856Z,98.24
2023-11-30T00:39:37.386Z,98.47
2023-11-30T00:42:04.334Z,97.78
2023-11-30T00:44:30.920Z,97.99
2023-11-30T00:46:57.468Z,97.64
2023-11-30T00:49:23.988Z,97.40
2023-11-30T00:51:50.600Z,97.69
2023-11-30T00:54:17.291Z,97.79
2023-11-30T00:56:43.948Z,97.86
2023-11-30T00:59:10.501Z,98.04
2023-11-30T01:01:37.176Z,98.03
2023-11-30T01:04:03.859Z,97.85
2023-11-30T01:06:31.467Z,97.57
2023-11-30T01:08:58.184Z,97.64
2023-11-30T01:11:24.725Z,97.55
2023-11-30T01:13:51.207Z,97.61
2023-11-30T01:16:17.780Z,97.93
2023-11-30T01:18:44.443Z,97.76
2023-11-30T01:21:11.121Z,98.15
2023-11-30T01:23:37.659Z,97.92
2023-11-30T01:26:04.517Z,98.10
2023-11-30T01:28:31.135Z,97.39
2023-11-30T01:30:57.743Z,97.18
2023-11-30T01:33:24.452Z,97.54
2023-11-30T01:35:51.332Z,97.50
2023-11-30T01:38:17.946Z,97.54
2023-11-30T01:40:44.597Z,97.67
2023-11-30T01:43:11.970Z,98.06
2023-11-30T01:45:38.951Z,98.24
2023-11-30T01:48:05.780Z,98.08
2023-11-30T01:50:32.494Z,97.91
2023-11-30T01:52:59.115Z,98.36
2023-11-30T01:55:25.824Z,98.28
2023-11-30T01:57:52.574Z,98.27
2023-11-30T02:00:20.342Z,98.51
2023-11-30T02:02:47.808Z,98.60
2023-11-30T02:05:14.348Z,98.11
2023-11-30T02:07:40.859Z,98.51
2023-11-30T02:10:07.822Z,98.20
2023-11-30T02:12:34.494Z,99.22
2023-11-30T02:15:01.184Z,99.34
2023-11-30T02:17:27.815Z,99.60
2023-11-30T02:19:54.308Z,99.64
2023-11-30T02:22:20.825Z,99.77
2023-11-30T02:24:47.711Z,99.99
2023-11-30T02:27:14.282Z,99.80
2023-11-30T02:29:40.820Z,99.27
2023-11-30T02:32:07.603Z,99.47
2023-11-30T02:34:34.349Z,99.14
2023-11-30T02:37:00.865Z,98.71
2023-11-30T02:39:27.642Z,98.85
2023-11-30T02:41:54.329Z,98.72
2023-11-30T02:44:20.879Z,98.94
2023-11-30T02:46:47.413Z,98.76
2023-11-30T02:49:13.970Z,98.35
2023-11-30T02:51:40.476Z,98.47
2023-11-30T02:54:07.017Z,98.57
2023-11-30T02:56:40.539Z,98.91
2023-11-30T02:59:07.302Z,98.66
2023-11-30T03:01:34.004Z,98.46
2023-11-30T03:04:00.712Z,98.72
2023-11-30T03:06:27.313Z,99.05
2023-11-30T03:08:53.859Z,99.22
2023-11-30T03:11:20.419Z,99.76
2023-11-30T03:13:46.929Z,99.43
2023-11-30T03:16:13.506Z,99.70
2023-11-30T03:18:41.701Z,99.99
2023-11-30T03:21:21.667Z,99.99
2023-11-30T03:23:48.261Z,99.99
2023-11-30T03:26:18.143Z,99.99
2023-11-30T03:28:45.086Z,99.99
2023-11-30T03:31:11.572Z,99.99
2023-11-30T03:33:38.090Z,99.99
2023-11-30T03:36:04.838Z,99.99
2023-11-30T03:38:31.670Z,99.99
2023-11-30T03:40:58.252Z,99.99
2023-11-30T03:43:24.721Z,99.99
2023-11-30T03:45:51.281Z,99.99
2023-11-30T03:48:17.894Z,99.99
2023-11-30T03:50:44.619Z,99.99
2023-11-30T03:53:11.126Z,99.99
2023-11-30T03:55:37.601Z,99.99
2023-11-30T03:58:05.947Z,99.99
2023-11-30T04:00:33.079Z,99.99
2023-11-30T04:02:59.609Z,99.99
2023-11-30T04:05:26.150Z,99.99
2023-11-30T04:07:52.639Z,99.99
2023-11-30T04:10:19.320Z,99.99
2023-11-30T04:12:45.766Z,99.99
2023-11-30T04:15:12.400Z,99.99
2023-11-30T04:17:38.988Z,99.99
2023-11-30T04:20:06.329Z,99.99
2023-11-30T04:22:32.837Z,99.99
2023-11-30T04:24:59.338Z,99.99
2023-11-30T04:27:25.910Z,99.99
2023-11-30T04:29:52.459Z,99.99
2023-11-30T04:32:18.975Z,99.99
2023-11-30T04:34:45.493Z,99.99
2023-11-30T04:37:11.997Z,99.99
2023-11-30T04:39:38.954Z,99.99
2023-11-30T04:42:05.707Z,99.99
2023-11-30T04:44:32.350Z,99.99
2023-11-30T04:46:58.918Z,99.99
2023-11-30T04:49:25.416Z,99.99
2023-11-30T04:51:51.951Z,99.99
2023-11-30T04:54:18.542Z,99.99
2023-11-30T04:56:45.030Z,99.99
2023-11-30T04:59:11.511Z,99.99
2023-11-30T05:01:38.271Z,99.99
2023-11-30T05:04:05.230Z,99.99
2023-11-30T05:06:32.051Z,99.99
2023-11-30T05:08:58.641Z,99.99
2023-11-30T05:11:25.976Z,99.99
2023-11-30T05:13:52.636Z,99.99
2023-11-30T05:16:19.146Z,99.99
2023-11-30T05:18:45.666Z,99.99
2023-11-30T05:21:12.351Z,99.99
2023-11-30T05:23:38.887Z,99.99
2023-11-30T05:26:05.753Z,99.99
2023-11-30T05:28:33.541Z,99.99
2023-11-30T05:31:00.302Z,99.99
2023-11-30T05:33:28.932Z,99.97
2023-11-30T05:35:55.701Z,99.99
2023-11-30T05:38:22.384Z,99.99
2023-11-30T05:40:48.927Z,99.99
2023-11-30T05:43:16.355Z,99.92
2023-11-30T05:45:45.114Z,99.70
2023-11-30T05:48:11.805Z,99.56
2023-11-30T05:50:38.361Z,99.62
2023-11-30T05:53:06.327Z,99.69
2023-11-30T06:00:49.426Z,99.64
2023-11-30T06:03:16.113Z,99.69
2023-11-30T06:05:42.849Z,99.69
2023-11-30T06:08:10.322Z,99.65
2023-11-30T06:10:37.504Z,99.65
2023-11-30T06:13:04.330Z,99.48
2023-11-30T06:15:31.013Z,99.67
2023-11-30T06:17:57.641Z,99.65
2023-11-30T06:20:24.235Z,99.37
2023-11-30T06:22:50.762Z,99.65
2023-11-30T06:25:17.384Z,99.99
2023-11-30T06:27:43.945Z,99.99
2023-11-30T06:30:11.544Z,99.99
2023-11-30T06:32:38.152Z,99.69
2023-11-30T06:35:06.092Z,99.98
2023-11-30T06:37:32.700Z,99.82
2023-11-30T06:39:59.304Z,99.87
2023-11-30T06:42:25.835Z,99.80
2023-11-30T06:44:52.465Z,99.58
2023-11-30T06:47:19.054Z,99.52
2023-11-30T06:49:46.493Z,99.31
2023-11-30T06:52:13.112Z,99.64
2023-11-30T06:54:39.823Z,99.63
2023-11-30T06:57:06.454Z,99.32
2023-11-30T06:59:34.287Z,99.30
2023-11-30T07:02:01.056Z,99.22
2023-11-30T07:04:29.551Z,99.16
2023-11-30T07:06:56.447Z,99.18
2023-11-30T07:09:23.058Z,99.16
2023-11-30T07:11:49.598Z,99.09
2023-11-30T07:14:16.111Z,99.05
2023-11-30T07:16:42.656Z,99.04
2023-11-30T07:19:09.260Z,99.08
2023-11-30T07:21:35.839Z,98.93
2023-11-30T07:24:02.506Z,98.94
2023-11-30T07:26:29.086Z,99.10
2023-11-30T07:28:55.630Z,98.82
2023-11-30T07:31:23.011Z,98.87
2023-11-30T07:33:50.044Z,98.73
2023-11-30T07:36:16.838Z,98.87
2023-11-30T07:38:43.628Z,98.54
2023-11-30T07:41:10.253Z,98.51
2023-11-30T07:43:37.444Z,98.44
2023-11-30T07:46:04.260Z,98.14
2023-11-30T07:48:30.920Z,98.22
2023-11-30T07:50:57.541Z,97.85
2023-11-30T07:53:26.557Z,97.72
2023-11-30T07:55:57.758Z,97.70
2023-11-30T07:58:24.923Z,97.97
2023-11-30T08:00:52.136Z,97.39
2023-11-30T08:03:18.828Z,97.13
2023-11-30T08:05:45.915Z,96.80
2023-11-30T08:08:13.179Z,96.38
2023-11-30T08:10:40.368Z,96.15
2023-11-30T08:13:07.730Z,96.19
2023-11-30T08:15:34.530Z,96.18
2023-11-30T08:18:02.024Z,96.55
2023-11-30T08:20:28.839Z,96.96
2023-11-30T08:22:56.447Z,97.12
2023-11-30T08:25:23.106Z,97.36
2023-11-30T08:27:54.105Z,97.59
2023-11-30T08:30:21.716Z,97.25
2023-11-30T08:32:48.367Z,97.35
2023-11-30T08:35:14.930Z,97.39
2023-11-30T08:37:41.461Z,97.31
2023-11-30T08:40:08.903Z,97.80
2023-11-30T08:42:36.632Z,97.79
2023-11-30T08:45:04.093Z,97.50
2023-11-30T08:47:30.717Z,96.72
2023-11-30T08:49:57.340Z,96.61
2023-11-30T08:52:24.292Z,96.97
2023-11-30T08:54:52.496Z,97.05
2023-11-30T08:57:20.644Z,96.73
2023-11-30T08:59:47.578Z,96.37
2023-11-30T09:02:14.696Z,96.94
2023-11-30T09:04:41.802Z,96.86
2023-11-30T09:07:08.496Z,96.82
2023-11-30T09:09:35.175Z,96.59
2023-11-30T09:12:03.322Z,96.55
2023-11-30T09:14:31.939Z,96.65
2023-11-30T09:17:00.457Z,96.73
2023-11-30T09:19:27.119Z,96.43
2023-11-30T09:21:53.928Z,96.59
2023-11-30T09:24:23.036Z,96.62
2023-11-30T09:26:54.439Z,96.75
2023-11-30T09:29:21.163Z,96.56
2023-11-30T09:31:47.936Z,96.35
2023-11-30T09:34:14.630Z,96.38
2023-11-30T09:36:42.000Z,96.36
2023-11-30T09:39:26.747Z,96.43
2023-11-30T09:41:53.500Z,96.45
2023-11-30T09:44:20.705Z,96.15
2023-11-30T09:46:47.333Z,95.98
2023-11-30T09:49:13.933Z,95.49
2023-11-30T09:51:42.521Z,95.26
2023-11-30T09:54:09.404Z,95.44
2023-11-30T09:56:36.021Z,94.97
2023-11-30T09:59:02.546Z,94.76
2023-11-30T10:01:29.222Z,94.82
2023-11-30T10:03:56.287Z,94.61
2023-11-30T10:06:22.977Z,93.76
2023-11-30T10:08:49.705Z,93.44
2023-11-30T10:11:16.356Z,93.81
2023-11-30T10:13:44.192Z,93.49
2023-11-30T10:16:11.886Z,92.75
2023-11-30T10:18:38.660Z,92.50
2023-11-30T10:21:08.648Z,93.18
2023-11-30T10:23:35.565Z,92.32
2023-11-30T10:26:03.221Z,92.82
2023-11-30T10:28:30.175Z,92.82
2023-11-30T10:31:00.448Z,92.40
2023-11-30T10:33:28.844Z,91.84
2023-11-30T10:35:55.593Z,92.17
2023-11-30T10:38:34.899Z,91.25
2023-11-30T10:41:08.119Z,91.32
2023-11-30T10:43:37.618Z,90.84
2023-11-30T10:46:08.785Z,89.95
2023-11-30T10:48:39.689Z,90.62
2023-11-30T10:51:08.524Z,90.31
2023-11-30T10:54:24.685Z,90.44
2023-11-30T10:56:51.684Z,90.11
2023-11-30T10:59:18.162Z,89.47
2023-11-30T11:01:46.449Z,88.64
2023-11-30T11:04:16.260Z,89.33
2023-11-30T11:06:43.332Z,88.85
2023-11-30T11:09:16.495Z,89.54
2023-11-30T11:11:44.406Z,90.97
2023-11-30T11:14:34.023Z,90.93
2023-11-30T11:17:10.921Z,90.88
2023-11-30T11:19:44.915Z,90.92
2023-11-30T11:22:22.434Z,90.82
2023-11-30T11:24:49.752Z,90.61
2023-11-30T11:27:30.671Z,89.96
2023-11-30T11:29:59.106Z,88.81
2023-11-30T11:32:26.566Z,88.60
2023-11-30T11:34:54.036Z,88.50
2023-11-30T11:37:21.071Z,88.39
2023-11-30T11:39:49.588Z,88.46
2023-11-30T11:42:16.432Z,88.44
2023-11-30T11:44:43.030Z,88.27
2023-11-30T11:47:09.768Z,87.90
2023-11-30T11:49:36.350Z,88.96
2023-11-30T11:52:02.889Z,88.89
2023-11-30T11:54:29.920Z,89.03
2023-11-30T11:56:56.525Z,89.54
2023-11-30T11:59:24.929Z,89.77
2023-11-30T12:01:51.991Z,90.10
2023-11-30T12:04:33.193Z,90.32
2023-11-30T12:07:01.347Z,90.87
2023-11-30T12:09:27.927Z,90.70
2023-11-30T12:11:57.486Z,90.80
2023-11-30T12:14:26.008Z,90.93
2023-11-30T12:16:53.216Z,90.86
2023-11-30T12:19:21.115Z,91.44
2023-11-30T12:21:48.274Z,91.56
2023-11-30T12:24:15.813Z,91.47
2023-11-30T12:26:42.987Z,91.02
2023-11-30T12:29:11.185Z,90.55
2023-11-30T12:31:38.111Z,90.63
2023-11-30T12:34:05.512Z,90.61
2023-11-30T12:36:32.129Z,90.29
2023-11-30T12:38:58.796Z,90.17
2023-11-30T12:41:25.510Z,90.00
2023-11-30T12:43:52.193Z,90.02
2023-11-30T12:46:18.801Z,90.61
2023-11-30T12:48:45.476Z,90.31
2023-11-30T12:51:12.060Z,88.97
2023-11-30T12:53:39.537Z,87.15
2023-11-30T12:56:06.615Z,88.28
2023-11-30T12:58:33.255Z,89.95
2023-11-30T13:01:00.311Z,90.34
2023-11-30T13:03:27.388Z,91.16
2023-11-30T13:05:54.097Z,91.19
2023-11-30T13:08:21.812Z,91.32
2023-11-30T13:10:48.463Z,91.79
2023-11-30T13:13:14.996Z,92.06
2023-11-30T13:15:43.002Z,92.93
2023-11-30T13:18:09.597Z,93.31
2023-11-30T13:20:36.438Z,93.17
2023-11-30T13:23:02.979Z,93.45
2023-11-30T13:25:29.558Z,93.59
2023-11-30T13:27:56.119Z,94.00
2023-11-30T13:30:22.777Z,93.80
2023-11-30T13:32:49.413Z,94.23
2023-11-30T13:35:16.160Z,94.44
2023-11-30T13:37:43.345Z,94.28
2023-11-30T13:40:11.209Z,94.52
2023-11-30T13:42:38.085Z,95.03
2023-11-30T13:45:06.489Z,95.28
2023-11-30T13:47:33.344Z,95.34
2023-11-30T13:49:59.870Z,95.36
2023-11-30T13:52:26.473Z,95.25
2023-11-30T13:54:53.098Z,95.48
2023-11-30T13:57:19.722Z,95.89
2023-11-30T13:59:46.285Z,95.72
2023-11-30T14:02:12.945Z,95.53
2023-11-30T14:04:39.733Z,95.46
2023-11-30T14:07:06.457Z,95.75
2023-11-30T14:09:33.142Z,96.10
2023-11-30T14:11:59.879Z,96.05
2023-11-30T14:14:27.490Z,96.09
2023-11-30T14:16:54.541Z,96.39
2023-11-30T14:19:21.375Z,96.32
2023-11-30T14:21:48.047Z,96.13
2023-11-30T14:24:15.439Z,96.26
2023-11-30T14:26:42.176Z,96.34
2023-11-30T14:29:08.849Z,96.61
2023-11-30T14:31:35.384Z,97.08
2023-11-30T14:34:02.028Z,97.39
2023-11-30T14:36:30.695Z,97.43
2023-11-30T14:38:58.810Z,97.51
2023-11-30T14:41:25.878Z,97.14
2023-11-30T14:43:52.627Z,97.29
2023-11-30T14:46:19.308Z,97.40
2023-11-30T14:48:45.891Z,97.29
2023-11-30T14:51:14.451Z,97.63
2023-11-30T14:53:41.263Z,98.09
2023-11-30T14:56:09.030Z,97.87
2023-11-30T14:58:35.505Z,97.54
2023-11-30T15:01:02.198Z,97.28
2023-11-30T15:03:29.090Z,97.80
2023-11-30T15:05:55.734Z,98.02
2023-11-30T15:08:22.260Z,98.08
2023-11-30T15:10:49.707Z,98.26
2023-11-30T15:13:16.506Z,97.99
2023-11-30T15:15:43.437Z,97.95
2023-11-30T15:18:09.986Z,98.28
2023-11-30T15:20:36.804Z,98.05
2023-11-30T15:23:03.358Z,97.95
2023-11-30T15:25:29.910Z,97.92
2023-11-30T15:27:56.536Z,98.13
2023-11-30T15:30:23.181Z,98.15
2023-11-30T15:32:49.843Z,98.21
2023-11-30T15:35:16.875Z,98.25
2023-11-30T15:37:49.227Z,98.33
2023-11-30T15:40:17.765Z,98.28
2023-11-30T15:42:47.852Z,98.29
2023-11-30T15:45:17.748Z,98.93
2023-11-30T15:47:44.725Z,98.76
2023-11-30T15:50:11.987Z,98.19
2023-11-30T15:52:38.601Z,98.30
2023-11-30T15:55:05.748Z,98.69
2023-11-30T15:57:32.432Z,98.70
2023-11-30T15:59:59.138Z,98.68
2023-11-30T16:02:25.790Z,98.31
2023-11-30T16:04:52.377Z,98.58
2023-11-30T16:07:18.923Z,98.66
2023-11-30T16:09:45.605Z,99.19
2023-11-30T16:12:12.247Z,98.46
2023-11-30T16:14:38.790Z,98.25
2023-11-30T16:17:05.564Z,98.47
2023-11-30T16:19:34.489Z,98.04
2023-11-30T16:22:01.100Z,98.01
2023-11-30T16:24:27.787Z,98.48
2023-11-30T16:26:55.378Z,98.44
2023-11-30T16:29:22.535Z,98.46
2023-11-30T16:31:50.329Z,98.73
2023-11-30T16:34:19.860Z,98.71
2023-11-30T16:36:48.605Z,98.70
2023-11-30T16:39:15.899Z,98.76
2023-11-30T16:41:43.342Z,98.79
2023-11-30T16:44:09.991Z,98.42
2023-11-30T16:46:37.276Z,98.04
2023-11-30T16:49:04.294Z,98.04
2023-11-30T16:51:30.930Z,98.35
2023-11-30T16:53:57.684Z,98.44
2023-11-30T16:56:25.400Z,98.33
2023-11-30T16:58:55.266Z,98.55
2023-11-30T17:01:22.527Z,98.12
2023-11-30T17:03:49.689Z,98.73
2023-11-30T17:06:16.457Z,98.10
2023-11-30T17:08:43.142Z,98.06
2023-11-30T17:11:09.849Z,98.01
2023-11-30T17:13:36.365Z,98.55
2023-11-30T17:16:05.487Z,97.93
2023-11-30T17:18:33.018Z,97.89
2023-11-30T17:21:00.219Z,97.95
2023-11-30T17:23:27.585Z,98.21
2023-11-30T17:25:54.580Z,97.92
2023-11-30T17:28:21.114Z,98.00
2023-11-30T17:30:47.683Z,98.02
2023-11-30T17:33:14.369Z,98.10
2023-11-30T17:35:41.826Z,98.47
2023-11-30T17:38:08.433Z,98.25
2023-11-30T17:40:35.051Z,98.32
2023-11-30T17:43:01.738Z,98.20
2023-11-30T17:45:28.431Z,98.70
2023-11-30T17:47:56.731Z,98.57
2023-11-30T17:50:24.379Z,98.51
2023-11-30T17:52:51.107Z,98.34
2023-11-30T17:55:18.236Z,98.06
2023-11-30T17:57:44.946Z,97.98
2023-11-30T18:00:12.095Z,97.84
2023-11-30T18:02:38.688Z,98.35
2023-11-30T18:05:05.671Z,97.88
2023-11-30T18:07:32.172Z,98.41
2023-11-30T18:09:58.813Z,98.44
2023-11-30T18:12:25.711Z,98.13
2023-11-30T18:14:52.452Z,97.52
2023-11-30T18:17:19.078Z,97.90
2023-11-30T18:19:45.600Z,98.02
2023-11-30T18:22:12.214Z,97.98
2023-11-30T18:24:38.788Z,97.88
2023-11-30T18:27:05.544Z,98.15
2023-11-30T18:29:32.209Z,98.10
2023-11-30T18:31:59.009Z,98.33
2023-11-30T18:34:25.779Z,98.32
2023-11-30T18:36:53.701Z,98.21
2023-11-30T18:39:20.405Z,98.38
2023-11-30T18:41:47.106Z,98.19
2023-11-30T18:44:13.752Z,98.43
2023-11-30T18:46:40.837Z,98.56
2023-11-30T18:49:07.960Z,98.29
2023-11-30T18:51:36.668Z,98.21
2023-11-30T18:54:03.575Z,97.77
2023-11-30T18:56:30.444Z,97.73
2023-11-30T18:58:57.785Z,97.71
2023-11-30T19:01:25.101Z,97.44
2023-11-30T19:03:52.157Z,97.52
2023-11-30T19:06:20.218Z,97.41
2023-11-30T19:08:48.301Z,97.20
2023-11-30T19:11:16.903Z,97.50
2023-11-30T19:13:44.247Z,97.51
2023-11-30T19:16:23.838Z,97.32
2023-11-30T19:18:51.435Z,97.38
2023-11-30T19:21:18.427Z,97.25
2023-11-30T19:23:48.188Z,97.42
2023-11-30T19:26:16.220Z,97.04
2023-11-30T19:28:42.848Z,97.03
2023-11-30T19:31:09.547Z,97.25
2023-11-30T19:33:36.252Z,97.32
2023-11-30T19:36:02.906Z,97.25
2023-11-30T19:38:29.553Z,97.23
2023-11-30T19:40:57.023Z,97.10
2023-11-30T19:43:26.555Z,97.23
2023-11-30T19:45:55.359Z,97.53
2023-11-30T19:48:22.599Z,97.43
2023-11-30T19:50:49.266Z,97.85
2023-11-30T19:53:16.412Z,97.87
2023-11-30T19:55:45.900Z,97.97
2023-11-30T19:58:12.406Z,97.59
2023-11-30T20:00:41.169Z,97.67
2023-11-30T20:03:08.516Z,97.64
2023-11-30T20:05:35.237Z,97.44
2023-11-30T20:08:01.845Z,97.73
2023-11-30T20:10:28.442Z,97.89
2023-11-30T20:12:55.620Z,97.51
2023-11-30T20:15:22.317Z,97.10
2023-11-30T20:17:49.766Z,97.80
2023-11-30T20:20:16.856Z,97.72
2023-11-30T20:22:43.572Z,97.54
2023-11-30T20:25:10.481Z,97.04
2023-11-30T20:27:37.069Z,97.22
2023-11-30T20:30:03.998Z,97.00
2023-11-30T20:32:30.588Z,97.83
2023-11-30T20:34:57.287Z,97.57
2023-11-30T20:37:25.960Z,97.13
2023-11-30T20:39:52.637Z,97.37
2023-11-30T20:42:19.316Z,98.06
2023-11-30T20:44:47.751Z,97.70
2023-11-30T20:47:14.466Z,97.01
2023-11-30T20:49:41.036Z,96.84
2023-11-30T20:52:07.630Z,97.58
2023-11-30T20:54:35.303Z,97.52
2023-11-30T20:57:03.196Z,98.08
2023-11-30T20:59:29.812Z,97.88
2023-11-30T21:01:56.476Z,97.37
2023-11-30T21:04:23.351Z,97.50
2023-11-30T21:06:50.021Z,97.20
2023-11-30T21:09:16.685Z,97.06
2023-11-30T21:11:43.302Z,97.20
2023-11-30T21:14:11.342Z,97.43
2023-11-30T21:16:38.332Z,97.00
2023-11-30T21:19:05.035Z,97.25
2023-11-30T21:21:32.078Z,97.26
2023-11-30T21:23:58.663Z,97.25
2023-11-30T21:26:25.488Z,97.14
2023-11-30T21:28:52.006Z,97.73
2023-11-30T21:31:18.741Z,97.27
2023-11-30T21:33:45.467Z,97.60
2023-11-30T21:36:14.892Z,96.93
2023-11-30T21:38:42.044Z,97.68
2023-11-30T21:41:08.644Z,97.51
2023-11-30T21:43:35.274Z,97.05
2023-11-30T21:46:01.963Z,97.14
2023-11-30T21:48:28.642Z,97.38
2023-11-30T21:50:55.446Z,97.30
2023-11-30T21:53:22.110Z,97.35
2023-11-30T21:55:49.359Z,97.22
2023-11-30T21:58:16.280Z,97.56
2023-11-30T22:00:44.703Z,97.21
2023-11-30T22:03:12.653Z,96.89
2023-11-30T22:05:40.336Z,96.61
2023-11-30T22:08:06.958Z,96.44
2023-11-30T22:10:33.473Z,96.84
2023-11-30T22:13:00.078Z,97.11
2023-11-30T22:15:26.806Z,97.17
2023-11-30T22:17:53.410Z,97.22
2023-11-30T22:20:22.276Z,97.10
2023-11-30T22:22:48.791Z,97.14
2023-11-30T22:25:15.432Z,96.43
2023-11-30T22:27:42.030Z,96.60
2023-11-30T22:30:10.490Z,96.78
2023-11-30T22:32:37.012Z,97.07
2023-11-30T22:35:04.825Z,96.66
2023-11-30T22:37:31.388Z,96.66
2023-11-30T22:39:57.958Z,96.96
2023-11-30T22:42:26.313Z,96.62
2023-11-30T22:44:53.097Z,96.45
2023-11-30T22:47:19.639Z,96.46
2023-11-30T22:49:46.412Z,96.94
2023-11-30T22:52:13.099Z,97.10
2023-11-30T22:54:40.174Z,97.28
2023-11-30T22:57:06.791Z,97.03
2023-11-30T22:59:34.612Z,97.24
2023-11-30T23:02:01.447Z,98.00
2023-11-30T23:04:29.257Z,97.63
2023-11-30T23:06:55.978Z,97.16
2023-11-30T23:09:22.545Z,97.15
2023-11-30T23:11:49.115Z,97.13
2023-11-30T23:14:15.834Z,96.89
2023-11-30T23:16:42.396Z,97.62
2023-11-30T23:19:08.951Z,97.30
2023-11-30T23:21:35.505Z,97.41
2023-11-30T23:24:02.736Z,97.41
2023-11-30T23:26:29.357Z,97.32
2023-11-30T23:28:55.960Z,97.17
2023-11-30T23:31:23.023Z,97.27
2023-11-30T23:33:49.668Z,96.61
2023-11-30T23:36:16.306Z,97.23
2023-11-30T23:38:43.064Z,97.19
2023-11-30T23:41:09.815Z,97.22
2023-11-30T23:43:36.438Z,96.92
2023-11-30T23:46:04.200Z,96.80
2023-11-30T23:48:30.877Z,96.70
2023-11-30T23:50:57.472Z,97.04
2023-11-30T23:53:23.969Z,96.51
2023-11-30T23:55:50.512Z,96.38
2023-11-30T23:58:17.757Z,97.02
